createdAt,value
2018-10-05T00:00:34.936Z,11.5
2018-10-05T00:01:37.783Z,11.5
2018-10-05T00:02:35.172Z,11.5
2018-10-05T00:03:34.903Z,11.5
2018-10-05T00:04:34.962Z,11.5
2018-10-05T00:05:34.910Z,11.56
2018-10-05T00:06:35.197Z,11.56
2018-10-05T00:07:35.338Z,11.56
2018-10-05T00:08:34.970Z,11.56
2018-10-05T00:09:35.318Z,11.63
2018-10-05T00:10:35.325Z,11.56
2018-10-05T00:11:35.244Z,11.63
2018-10-05T00:12:35.360Z,11.56
2018-10-05T00:13:34.873Z,11.56
2018-10-05T00:14:35.096Z,11.56
2018-10-05T00:15:34.958Z,11.56
2018-10-05T00:16:35.000Z,11.56
2018-10-05T00:17:34.869Z,11.56
2018-10-05T00:18:35.047Z,11.63
2018-10-05T00:19:34.909Z,11.63
2018-10-05T00:20:35.943Z,11.63
2018-10-05T00:21:35.104Z,11.63
2018-10-05T00:22:35.153Z,11.63
2018-10-05T00:23:34.909Z,11.69
2018-10-05T00:24:34.906Z,11.63
2018-10-05T00:25:34.927Z,11.69
2018-10-05T00:26:34.873Z,11.69
2018-10-05T00:27:35.240Z,11.69
2018-10-05T00:28:34.958Z,11.69
2018-10-05T00:29:34.889Z,11.69
2018-10-05T00:30:35.158Z,11.69
2018-10-05T00:31:35.042Z,11.63
2018-10-05T00:32:35.299Z,11.69
2018-10-05T00:33:35.067Z,11.69
2018-10-05T00:34:34.880Z,11.63
2018-10-05T00:35:34.928Z,11.63
2018-10-05T00:36:34.892Z,11.63
2018-10-05T00:37:34.912Z,11.63
2018-10-05T00:38:34.869Z,11.63
2018-10-05T00:39:35.018Z,11.63
2018-10-05T00:40:34.975Z,11.63
2018-10-05T00:41:34.893Z,11.63
2018-10-05T00:42:34.902Z,11.63
2018-10-05T00:43:34.947Z,11.63
2018-10-05T00:44:34.880Z,11.63
2018-10-05T00:45:34.881Z,11.63
2018-10-05T00:46:34.886Z,11.56
2018-10-05T00:47:34.862Z,11.56
2018-10-05T00:48:34.851Z,11.56
2018-10-05T00:49:34.863Z,11.56
2018-10-05T00:50:34.864Z,11.5
2018-10-05T00:51:35.239Z,11.5
2018-10-05T00:52:34.836Z,11.5
2018-10-05T00:53:36.007Z,11.5
2018-10-05T00:54:35.224Z,11.5
2018-10-05T00:55:35.125Z,11.5
2018-10-05T00:56:34.908Z,11.5
2018-10-05T00:57:34.861Z,11.44
2018-10-05T00:58:34.911Z,11.5
2018-10-05T00:59:34.833Z,11.44
2018-10-05T01:00:35.029Z,11.44
2018-10-05T01:01:35.720Z,11.44
2018-10-05T01:02:35.686Z,11.44
2018-10-05T01:03:34.841Z,11.44
2018-10-05T01:04:34.840Z,11.44
2018-10-05T01:05:35.181Z,11.44
2018-10-05T01:06:34.895Z,11.38
2018-10-05T01:07:35.109Z,11.38
2018-10-05T01:08:34.867Z,11.38
2018-10-05T01:09:35.127Z,11.38
2018-10-05T01:10:35.216Z,11.38
2018-10-05T01:11:36.352Z,11.31
2018-10-05T01:12:34.848Z,11.31
2018-10-05T01:13:34.975Z,11.31
2018-10-05T01:14:35.320Z,11.38
2018-10-05T01:15:34.827Z,11.31
2018-10-05T01:16:34.812Z,11.38
2018-10-05T01:17:34.839Z,11.31
2018-10-05T01:18:35.019Z,11.31
2018-10-05T01:19:34.813Z,11.31
2018-10-05T01:20:35.095Z,11.25
2018-10-05T01:21:34.806Z,11.25
2018-10-05T01:22:35.208Z,11.25
2018-10-05T01:23:34.949Z,11.25
2018-10-05T01:24:34.944Z,11.25
2018-10-05T01:25:34.986Z,11.25
2018-10-05T01:26:34.874Z,11.25
2018-10-05T01:27:34.808Z,11.25
2018-10-05T01:28:34.917Z,11.25
2018-10-05T01:29:34.832Z,11.25
2018-10-05T01:30:34.912Z,11.25
2018-10-05T01:31:34.940Z,11.25
2018-10-05T01:32:35.087Z,11.25
2018-10-05T01:33:34.817Z,11.25
2018-10-05T01:34:34.902Z,11.25
2018-10-05T01:35:34.801Z,11.25
2018-10-05T01:36:35.035Z,11.25
2018-10-05T01:37:34.817Z,11.31
2018-10-05T01:38:34.914Z,11.31
2018-10-05T01:39:34.935Z,11.31
2018-10-05T01:40:35.044Z,11.31
2018-10-05T01:41:34.945Z,11.31
2018-10-05T01:42:34.859Z,11.19
2018-10-05T01:43:34.890Z,11.12
2018-10-05T01:44:34.870Z,11
2018-10-05T01:45:34.798Z,11
2018-10-05T01:46:34.881Z,10.94
2018-10-05T01:47:34.899Z,10.81
2018-10-05T01:48:35.074Z,10.69
2018-10-05T01:49:35.203Z,10.69
2018-10-05T01:50:35.000Z,10.69
2018-10-05T01:51:34.787Z,10.56
2018-10-05T01:52:35.286Z,10.56
2018-10-05T01:53:34.802Z,10.56
2018-10-05T01:54:34.859Z,10.5
2018-10-05T01:55:34.825Z,10.5
2018-10-05T01:56:34.820Z,10.44
2018-10-05T01:57:34.777Z,10.44
2018-10-05T01:58:34.742Z,10.44
2018-10-05T01:59:34.842Z,10.44
2018-10-05T02:00:35.159Z,10.44
2018-10-05T02:01:34.775Z,10.44
2018-10-05T02:02:35.421Z,10.44
2018-10-05T02:03:34.389Z,10.38
2018-10-05T02:04:34.806Z,10.44
2018-10-05T02:05:34.819Z,10.38
2018-10-05T02:06:34.750Z,10.38
2018-10-05T02:07:34.928Z,10.31
2018-10-05T02:08:34.759Z,10.31
2018-10-05T02:09:34.760Z,10.25
2018-10-05T02:10:34.773Z,10.25
2018-10-05T02:11:34.739Z,10.25
2018-10-05T02:12:34.759Z,10.19
2018-10-05T02:13:34.718Z,10.19
2018-10-05T02:14:34.781Z,10.13
2018-10-05T02:15:34.755Z,10.13
2018-10-05T02:16:34.865Z,10.13
2018-10-05T02:17:34.723Z,10.13
2018-10-05T02:18:34.764Z,10.06
2018-10-05T02:19:34.811Z,10.06
2018-10-05T02:20:34.638Z,10.13
2018-10-05T02:21:34.746Z,10.06
2018-10-05T02:22:34.718Z,10.06
2018-10-05T02:23:34.926Z,10.06
2018-10-05T02:24:35.120Z,10
2018-10-05T02:25:34.705Z,10
2018-10-05T02:26:34.728Z,9.94
2018-10-05T02:27:35.680Z,10
2018-10-05T02:28:34.764Z,10
2018-10-05T02:29:34.746Z,9.94
2018-10-05T02:30:34.965Z,10
2018-10-05T02:31:34.798Z,10
2018-10-05T02:32:34.796Z,10
2018-10-05T02:33:34.729Z,9.94
2018-10-05T02:34:34.828Z,9.94
2018-10-05T02:35:34.946Z,9.88
2018-10-05T02:36:35.050Z,9.94
2018-10-05T02:37:34.684Z,9.94
2018-10-05T02:38:34.717Z,9.88
2018-10-05T02:39:35.047Z,9.88
2018-10-05T02:40:34.778Z,9.88
2018-10-05T02:41:35.178Z,9.88
2018-10-05T02:42:34.741Z,9.88
2018-10-05T02:43:34.748Z,9.88
2018-10-05T02:44:34.898Z,9.88
2018-10-05T02:45:34.804Z,9.88
2018-10-05T02:46:34.722Z,9.81
2018-10-05T02:47:34.878Z,9.81
2018-10-05T02:48:34.748Z,9.75
2018-10-05T02:49:34.718Z,9.81
2018-10-05T02:50:34.864Z,9.75
2018-10-05T02:51:34.720Z,9.75
2018-10-05T02:52:34.896Z,9.69
2018-10-05T02:53:34.675Z,9.69
2018-10-05T02:54:34.736Z,9.69
2018-10-05T02:55:34.735Z,9.63
2018-10-05T02:56:34.815Z,9.63
2018-10-05T02:57:34.796Z,9.63
2018-10-05T02:58:34.657Z,9.63
2018-10-05T02:59:34.698Z,9.63
2018-10-05T03:00:34.850Z,9.63
2018-10-05T03:01:34.700Z,9.63
2018-10-05T03:02:34.710Z,9.56
2018-10-05T03:03:34.639Z,9.56
2018-10-05T03:04:34.654Z,9.56
2018-10-05T03:05:34.790Z,9.56
2018-10-05T03:06:34.955Z,9.5
2018-10-05T03:07:34.685Z,9.5
2018-10-05T03:08:34.683Z,9.5
2018-10-05T03:09:34.767Z,9.5
2018-10-05T03:10:34.930Z,9.5
2018-10-05T03:11:34.806Z,9.5
2018-10-05T03:12:34.769Z,9.5
2018-10-05T03:13:35.036Z,9.44
2018-10-05T03:14:34.728Z,9.5
2018-10-05T03:15:34.699Z,9.44
2018-10-05T03:16:34.625Z,9.44
2018-10-05T03:17:34.674Z,9.44
2018-10-05T03:18:34.690Z,9.38
2018-10-05T03:19:35.041Z,9.38
2018-10-05T03:20:34.673Z,9.38
2018-10-05T03:21:34.796Z,9.38
2018-10-05T03:22:34.923Z,9.38
2018-10-05T03:23:34.796Z,9.38
2018-10-05T03:24:34.699Z,9.38
2018-10-05T03:25:34.730Z,9.38
2018-10-05T03:26:34.590Z,9.38
2018-10-05T03:27:34.720Z,9.38
2018-10-05T03:28:34.639Z,9.38
2018-10-05T03:29:34.687Z,9.38
2018-10-05T03:30:34.663Z,9.44
2018-10-05T03:31:34.702Z,9.44
2018-10-05T03:32:34.641Z,9.5
2018-10-05T03:33:34.631Z,9.5
2018-10-05T03:34:34.620Z,9.5
2018-10-05T03:35:34.787Z,9.56
2018-10-05T03:36:34.696Z,9.5
2018-10-05T03:37:34.610Z,9.56
2018-10-05T03:38:34.596Z,9.63
2018-10-05T03:39:34.644Z,9.69
2018-10-05T03:40:34.631Z,9.69
2018-10-05T03:41:34.721Z,9.75
2018-10-05T03:42:34.692Z,9.75
2018-10-05T03:43:34.645Z,9.81
2018-10-05T03:44:34.676Z,9.88
2018-10-05T03:45:34.620Z,9.88
2018-10-05T03:46:34.637Z,9.88
2018-10-05T03:47:34.580Z,9.88
2018-10-05T03:48:34.637Z,9.88
2018-10-05T03:49:34.570Z,9.88
2018-10-05T03:50:34.693Z,9.88
2018-10-05T03:51:36.203Z,9.88
2018-10-05T03:52:34.575Z,9.88
2018-10-05T03:53:34.593Z,9.94
2018-10-05T03:54:34.885Z,9.94
2018-10-05T03:55:34.596Z,9.88
2018-10-05T03:56:34.826Z,9.88
2018-10-05T03:57:34.604Z,9.94
2018-10-05T03:58:34.610Z,9.94
2018-10-05T03:59:34.788Z,9.94
2018-10-05T04:00:34.600Z,9.94
2018-10-05T04:01:35.131Z,9.94
2018-10-05T04:02:34.636Z,9.94
2018-10-05T04:03:34.578Z,10
2018-10-05T04:04:34.753Z,10
2018-10-05T04:05:34.841Z,10
2018-10-05T04:06:34.652Z,10
2018-10-05T04:07:34.938Z,10
2018-10-05T04:08:34.706Z,10.06
2018-10-05T04:09:34.584Z,10.06
2018-10-05T04:10:34.677Z,10.06
2018-10-05T04:11:34.639Z,10.06
2018-10-05T04:12:34.585Z,10.06
2018-10-05T04:13:34.787Z,10.13
2018-10-05T04:14:34.551Z,10.06
2018-10-05T04:15:34.780Z,10.13
2018-10-05T04:16:34.684Z,10.06
2018-10-05T04:17:34.538Z,10.13
2018-10-05T04:18:34.782Z,10.06
2018-10-05T04:19:34.700Z,10.06
2018-10-05T04:20:34.706Z,10.06
2018-10-05T04:21:34.544Z,10.06
2018-10-05T04:22:34.717Z,10.06
2018-10-05T04:23:34.719Z,10.06
2018-10-05T04:24:34.685Z,10.06
2018-10-05T04:25:34.704Z,10.06
2018-10-05T04:26:34.718Z,10.06
2018-10-05T04:27:34.852Z,10.06
2018-10-05T04:28:34.565Z,10.06
2018-10-05T04:29:34.688Z,10.06
2018-10-05T04:30:34.607Z,10
2018-10-05T04:31:34.592Z,10
2018-10-05T04:32:34.886Z,10
2018-10-05T04:33:34.886Z,10
2018-10-05T04:34:34.718Z,9.94
2018-10-05T04:35:35.663Z,9.94
2018-10-05T04:36:34.732Z,9.94
2018-10-05T04:37:34.607Z,9.94
2018-10-05T04:38:34.722Z,9.94
2018-10-05T04:39:34.956Z,9.88
2018-10-05T04:40:34.565Z,9.94
2018-10-05T04:41:34.571Z,9.88
2018-10-05T04:42:34.704Z,9.94
2018-10-05T04:43:34.585Z,9.88
2018-10-05T04:44:34.543Z,9.94
2018-10-05T04:45:34.686Z,9.88
2018-10-05T04:46:34.694Z,9.88
2018-10-05T04:47:34.523Z,9.88
2018-10-05T04:48:34.632Z,9.81
2018-10-05T04:49:35.415Z,9.88
2018-10-05T04:50:34.689Z,9.88
2018-10-05T04:51:34.506Z,9.88
2018-10-05T04:52:34.737Z,9.88
2018-10-05T04:53:34.494Z,9.81
2018-10-05T04:54:34.673Z,9.81
2018-10-05T04:55:34.526Z,9.81
2018-10-05T04:56:35.006Z,9.81
2018-10-05T04:57:34.511Z,9.81
2018-10-05T04:58:34.709Z,9.81
2018-10-05T04:59:34.510Z,9.81
2018-10-05T05:00:34.511Z,9.81
2018-10-05T05:01:34.516Z,9.75
2018-10-05T05:02:34.534Z,9.81
2018-10-05T05:03:35.919Z,9.81
2018-10-05T05:04:34.500Z,9.75
2018-10-05T05:05:34.541Z,9.81
2018-10-05T05:06:34.497Z,9.75
2018-10-05T05:07:34.486Z,9.81
2018-10-05T05:08:34.812Z,9.81
2018-10-05T05:09:34.493Z,9.81
2018-10-05T05:10:34.529Z,9.81
2018-10-05T05:11:34.510Z,9.81
2018-10-05T05:12:34.477Z,9.88
2018-10-05T05:13:34.514Z,9.88
2018-10-05T05:14:34.457Z,9.88
2018-10-05T05:15:34.447Z,9.88
2018-10-05T05:16:34.479Z,9.94
2018-10-05T05:17:34.576Z,9.88
2018-10-05T05:18:35.171Z,9.88
2018-10-05T05:19:35.282Z,9.94
2018-10-05T05:20:34.615Z,9.88
2018-10-05T05:21:34.566Z,9.94
2018-10-05T05:22:34.564Z,9.88
2018-10-05T05:23:34.488Z,9.94
2018-10-05T05:24:34.785Z,9.88
2018-10-05T05:25:34.547Z,9.88
2018-10-05T05:26:34.624Z,9.88
2018-10-05T05:27:34.981Z,9.88
2018-10-05T05:28:34.502Z,9.88
2018-10-05T05:29:34.577Z,9.81
2018-10-05T05:30:34.486Z,9.88
2018-10-05T05:31:34.455Z,9.88
2018-10-05T05:32:34.764Z,9.88
2018-10-05T05:33:36.059Z,9.88
2018-10-05T05:34:34.690Z,9.88
2018-10-05T05:35:34.688Z,9.88
2018-10-05T05:36:34.600Z,9.88
2018-10-05T05:37:34.549Z,9.88
2018-10-05T05:38:34.813Z,9.88
2018-10-05T05:39:34.577Z,9.88
2018-10-05T05:40:34.468Z,9.88
2018-10-05T05:41:34.597Z,9.88
2018-10-05T05:42:34.450Z,9.88
2018-10-05T05:43:34.655Z,9.88
2018-10-05T05:44:34.634Z,9.88
2018-10-05T05:45:34.638Z,9.88
2018-10-05T05:46:34.841Z,9.88
2018-10-05T05:47:34.426Z,9.81
2018-10-05T05:48:34.539Z,9.81
2018-10-05T05:49:34.420Z,9.81
2018-10-05T05:50:34.591Z,9.81
2018-10-05T05:51:34.496Z,9.81
2018-10-05T05:52:34.497Z,9.81
2018-10-05T05:53:34.477Z,9.81
2018-10-05T05:54:35.747Z,9.81
2018-10-05T05:55:34.645Z,9.75
2018-10-05T05:56:34.572Z,9.75
2018-10-05T05:57:34.463Z,9.75
2018-10-05T05:58:34.420Z,9.75
2018-10-05T05:59:34.388Z,9.75
2018-10-05T06:00:34.555Z,9.75
2018-10-05T06:01:34.419Z,9.75
2018-10-05T06:02:34.471Z,9.75
2018-10-05T06:03:34.805Z,9.75
2018-10-05T06:04:34.794Z,9.75
2018-10-05T06:05:34.548Z,9.75
2018-10-05T06:06:34.818Z,9.75
2018-10-05T06:07:34.486Z,9.75
2018-10-05T06:08:34.513Z,9.75
2018-10-05T06:09:34.543Z,9.75
2018-10-05T06:10:34.455Z,9.75
2018-10-05T06:11:34.636Z,9.75
2018-10-05T06:12:34.548Z,9.75
2018-10-05T06:13:34.746Z,9.75
2018-10-05T06:14:34.507Z,9.69
2018-10-05T06:15:34.428Z,9.75
2018-10-05T06:16:35.964Z,9.75
2018-10-05T06:17:34.400Z,9.75
2018-10-05T06:18:34.513Z,9.81
2018-10-05T06:19:34.400Z,9.81
2018-10-05T06:20:34.499Z,9.81
2018-10-05T06:21:35.856Z,9.81
2018-10-05T06:22:35.377Z,9.81
2018-10-05T06:23:34.483Z,9.88
2018-10-05T06:24:34.454Z,9.88
2018-10-05T06:25:34.393Z,9.88
2018-10-05T06:26:34.402Z,9.88
2018-10-05T06:27:34.415Z,9.94
2018-10-05T06:28:34.437Z,9.94
2018-10-05T06:29:34.392Z,10
2018-10-05T06:30:35.696Z,10
2018-10-05T06:31:34.463Z,10
2018-10-05T06:32:34.419Z,10.06
2018-10-05T06:33:34.401Z,10.06
2018-10-05T06:34:34.371Z,10.06
2018-10-05T06:35:34.356Z,10.13
2018-10-05T06:36:34.384Z,10.13
2018-10-05T06:37:34.355Z,10.19
2018-10-05T06:38:34.352Z,10.19
2018-10-05T06:39:34.390Z,10.25
2018-10-05T06:40:34.885Z,10.25
2018-10-05T06:41:34.536Z,10.25
2018-10-05T06:42:35.328Z,10.31
2018-10-05T06:43:34.448Z,10.31
2018-10-05T06:44:34.373Z,10.38
2018-10-05T06:45:34.338Z,10.31
2018-10-05T06:46:34.368Z,10.38
2018-10-05T06:47:34.657Z,10.38
2018-10-05T06:48:34.342Z,10.44
2018-10-05T06:49:34.389Z,10.5
2018-10-05T06:50:34.520Z,10.44
2018-10-05T06:51:34.713Z,10.5
2018-10-05T06:52:34.491Z,10.5
2018-10-05T06:53:34.363Z,10.56
2018-10-05T06:54:34.337Z,10.56
2018-10-05T06:55:34.351Z,10.63
2018-10-05T06:56:34.562Z,10.63
2018-10-05T06:57:34.367Z,10.69
2018-10-05T06:58:34.650Z,10.69
2018-10-05T06:59:34.402Z,10.69
2018-10-05T07:00:34.333Z,10.75
2018-10-05T07:01:35.619Z,10.75
2018-10-05T07:02:34.496Z,10.75
2018-10-05T07:03:34.326Z,10.81
2018-10-05T07:04:34.395Z,10.88
2018-10-05T07:05:34.547Z,10.88
2018-10-05T07:06:34.343Z,10.88
2018-10-05T07:07:35.168Z,10.94
2018-10-05T07:08:42.730Z,10.94
2018-10-05T07:09:34.411Z,10.94
2018-10-05T07:10:34.347Z,10.94
2018-10-05T07:11:35.399Z,11
2018-10-05T07:12:34.319Z,11
2018-10-05T07:13:34.566Z,11.06
2018-10-05T07:14:34.480Z,11.06
2018-10-05T07:15:34.348Z,11.12
2018-10-05T07:16:34.359Z,11.12
2018-10-05T07:17:34.599Z,11.19
2018-10-05T07:18:34.505Z,11.19
2018-10-05T07:19:34.421Z,11.19
2018-10-05T07:20:34.318Z,11.25
2018-10-05T07:21:34.457Z,11.31
2018-10-05T07:22:35.685Z,11.31
2018-10-05T07:23:34.416Z,11.31
2018-10-05T07:24:34.337Z,11.31
2018-10-05T07:25:34.305Z,11.38
2018-10-05T07:26:34.420Z,11.38
2018-10-05T07:27:34.326Z,11.44
2018-10-05T07:28:36.895Z,11.44
2018-10-05T07:29:34.300Z,11.5
2018-10-05T07:30:34.354Z,11.5
2018-10-05T07:31:34.343Z,11.56
2018-10-05T07:32:34.339Z,11.56
2018-10-05T07:33:34.364Z,11.63
2018-10-05T07:34:34.316Z,11.63
2018-10-05T07:35:34.351Z,11.69
2018-10-05T07:36:34.397Z,11.69
2018-10-05T07:37:34.448Z,11.75
2018-10-05T07:38:34.300Z,11.75
2018-10-05T07:39:34.349Z,11.81
2018-10-05T07:40:34.295Z,11.81
2018-10-05T07:41:34.301Z,11.88
2018-10-05T07:42:34.389Z,11.81
2018-10-05T07:43:34.358Z,11.88
2018-10-05T07:44:34.574Z,11.94
2018-10-05T07:45:34.279Z,11.94
2018-10-05T07:46:34.335Z,12
2018-10-05T07:47:34.288Z,12
2018-10-05T07:48:34.293Z,12.06
2018-10-05T07:49:34.280Z,12.06
2018-10-05T07:50:34.253Z,12.06
2018-10-05T07:51:34.410Z,12.06
2018-10-05T07:52:34.281Z,12.06
2018-10-05T07:53:34.307Z,12.06
2018-10-05T07:54:34.287Z,12.06
2018-10-05T07:55:34.238Z,12.13
2018-10-05T07:56:34.257Z,12.13
2018-10-05T07:57:35.352Z,12.13
2018-10-05T07:58:34.243Z,12.19
2018-10-05T07:59:34.253Z,12.19
2018-10-05T08:00:34.274Z,12.25
2018-10-05T08:01:34.254Z,12.31
2018-10-05T08:02:34.334Z,12.37
2018-10-05T08:03:34.261Z,12.37
2018-10-05T08:04:34.239Z,12.44
2018-10-05T08:05:34.279Z,12.44
2018-10-05T08:06:34.413Z,12.5
2018-10-05T08:07:34.223Z,12.56
2018-10-05T08:08:34.302Z,12.56
2018-10-05T08:09:34.824Z,12.63
2018-10-05T08:10:34.230Z,12.63
2018-10-05T08:11:34.435Z,12.69
2018-10-05T08:12:34.259Z,12.69
2018-10-05T08:13:34.239Z,12.75
2018-10-05T08:14:34.682Z,12.75
2018-10-05T08:15:34.300Z,12.75
2018-10-05T08:16:34.494Z,12.81
2018-10-05T08:17:34.228Z,12.81
2018-10-05T08:18:34.253Z,12.88
2018-10-05T08:19:34.258Z,12.88
2018-10-05T08:20:34.621Z,12.94
2018-10-05T08:21:34.932Z,13
2018-10-05T08:22:34.277Z,13
2018-10-05T08:23:34.338Z,13.06
2018-10-05T08:24:34.266Z,13.13
2018-10-05T08:25:34.287Z,13.13
2018-10-05T08:26:34.270Z,13.19
2018-10-05T08:27:34.611Z,13.19
2018-10-05T08:28:34.267Z,13.19
2018-10-05T08:29:34.263Z,13.25
2018-10-05T08:30:34.487Z,13.31
2018-10-05T08:31:34.382Z,13.25
2018-10-05T08:32:34.329Z,13.31
2018-10-05T08:33:34.276Z,13.38
2018-10-05T08:34:35.271Z,13.38
2018-10-05T08:35:34.327Z,13.44
2018-10-05T08:36:34.414Z,13.38
2018-10-05T08:37:34.357Z,13.44
2018-10-05T08:38:34.240Z,13.5
2018-10-05T08:39:34.704Z,13.56
2018-10-05T08:40:35.054Z,13.56
2018-10-05T08:41:34.324Z,13.56
2018-10-05T08:42:34.616Z,13.62
2018-10-05T08:43:34.437Z,13.62
2018-10-05T08:44:34.344Z,13.69
2018-10-05T08:45:34.704Z,13.69
2018-10-05T08:46:34.208Z,13.69
2018-10-05T08:47:34.482Z,13.69
2018-10-05T08:48:34.249Z,13.75
2018-10-05T08:49:34.344Z,13.75
2018-10-05T08:50:34.475Z,13.81
2018-10-05T08:51:34.679Z,13.81
2018-10-05T08:52:34.312Z,13.81
2018-10-05T08:53:34.216Z,13.88
2018-10-05T08:54:34.254Z,13.94
2018-10-05T08:55:34.289Z,14
2018-10-05T08:56:34.218Z,14
2018-10-05T08:57:34.263Z,14.06
2018-10-05T08:58:34.260Z,14.13
2018-10-05T08:59:34.195Z,14.13
2018-10-05T09:00:35.211Z,14.19
2018-10-05T09:01:34.219Z,14.19
2018-10-05T09:02:34.148Z,14.25
2018-10-05T09:03:34.224Z,14.31
2018-10-05T09:04:34.245Z,14.31
2018-10-05T09:05:34.648Z,14.38
2018-10-05T09:06:34.235Z,14.38
2018-10-05T09:07:34.447Z,14.38
2018-10-05T09:08:34.181Z,14.44
2018-10-05T09:09:34.168Z,14.44
2018-10-05T09:10:34.277Z,14.44
2018-10-05T09:11:34.569Z,14.44
2018-10-05T09:12:34.263Z,14.5
2018-10-05T09:13:34.267Z,14.5
2018-10-05T09:14:34.123Z,14.5
2018-10-05T09:15:34.286Z,14.5
2018-10-05T09:16:34.223Z,14.56
2018-10-05T09:17:34.490Z,14.63
2018-10-05T09:18:34.187Z,14.69
2018-10-05T09:19:34.268Z,14.69
2018-10-05T09:20:34.268Z,14.75
2018-10-05T09:21:34.141Z,14.75
2018-10-05T09:22:34.208Z,14.75
2018-10-05T09:23:34.257Z,14.75
2018-10-05T09:24:34.178Z,14.81
2018-10-05T09:25:34.129Z,14.75
2018-10-05T09:26:34.153Z,14.81
2018-10-05T09:27:34.155Z,14.81
2018-10-05T09:28:34.619Z,14.81
2018-10-05T09:29:34.192Z,14.81
2018-10-05T09:30:34.588Z,14.81
2018-10-05T09:31:34.138Z,14.94
2018-10-05T09:32:34.250Z,14.87
2018-10-05T09:33:34.230Z,14.94
2018-10-05T09:34:34.477Z,15.06
2018-10-05T09:35:34.426Z,15.13
2018-10-05T09:36:34.125Z,15.25
2018-10-05T09:37:35.822Z,15.31
2018-10-05T09:38:34.470Z,15.31
2018-10-05T09:39:34.159Z,15.31
2018-10-05T09:40:34.273Z,15.38
2018-10-05T09:41:34.350Z,15.38
2018-10-05T09:42:34.448Z,15.38
2018-10-05T09:43:34.477Z,15.44
2018-10-05T09:44:34.333Z,15.5
2018-10-05T09:45:34.402Z,15.5
2018-10-05T09:46:34.213Z,15.5
2018-10-05T09:47:34.389Z,15.56
2018-10-05T09:48:34.202Z,15.63
2018-10-05T09:49:34.092Z,15.63
2018-10-05T09:50:34.221Z,15.69
2018-10-05T09:51:34.177Z,15.69
2018-10-05T09:52:34.624Z,15.75
2018-10-05T09:53:34.205Z,15.75
2018-10-05T09:54:34.207Z,15.75
2018-10-05T09:55:34.353Z,15.81
2018-10-05T09:56:34.502Z,15.81
2018-10-05T09:57:35.057Z,15.88
2018-10-05T09:58:34.219Z,15.94
2018-10-05T09:59:34.446Z,15.94
2018-10-05T10:00:34.385Z,15.94
2018-10-05T10:01:34.271Z,16
2018-10-05T10:02:34.157Z,16
2018-10-05T10:03:35.522Z,16.06
2018-10-05T10:04:34.146Z,16.06
2018-10-05T10:05:34.087Z,16.19
2018-10-05T10:06:34.060Z,16.19
2018-10-05T10:07:34.218Z,16.25
2018-10-05T10:08:34.435Z,16.25
2018-10-05T10:09:34.087Z,16.31
2018-10-05T10:10:34.168Z,16.37
2018-10-05T10:11:34.186Z,16.37
2018-10-05T10:12:34.030Z,16.37
2018-10-05T10:13:34.196Z,16.37
2018-10-05T10:14:34.499Z,16.44
2018-10-05T10:15:34.287Z,16.44
2018-10-05T10:16:34.182Z,16.5
2018-10-05T10:17:34.092Z,16.5
2018-10-05T10:18:34.063Z,16.5
2018-10-05T10:19:34.822Z,16.5
2018-10-05T10:20:34.072Z,16.56
2018-10-05T10:21:34.515Z,16.56
2018-10-05T10:22:34.685Z,16.56
2018-10-05T10:23:34.339Z,16.62
2018-10-05T10:24:34.173Z,16.69
2018-10-05T10:25:34.177Z,16.69
2018-10-05T10:26:34.141Z,16.75
2018-10-05T10:27:34.457Z,16.87
2018-10-05T10:28:35.782Z,16.87
2018-10-05T10:29:35.275Z,16.94
2018-10-05T10:30:34.285Z,16.94
2018-10-05T10:31:34.184Z,17
2018-10-05T10:32:34.432Z,17.06
2018-10-05T10:33:34.506Z,17
2018-10-05T10:34:35.262Z,17
2018-10-05T10:35:34.127Z,17
2018-10-05T10:36:34.615Z,17
2018-10-05T10:37:34.107Z,17.06
2018-10-05T10:38:34.272Z,17.12
2018-10-05T10:39:34.868Z,17.12
2018-10-05T10:40:34.149Z,17.06
2018-10-05T10:41:34.168Z,17.12
2018-10-05T10:42:34.706Z,17.19
2018-10-05T10:43:34.278Z,17.19
2018-10-05T10:44:34.078Z,17.19
2018-10-05T10:45:34.160Z,17.19
2018-10-05T10:46:34.090Z,17.12
2018-10-05T10:47:34.112Z,17.19
2018-10-05T10:48:34.071Z,17.19
2018-10-05T10:49:34.146Z,17.25
2018-10-05T10:50:34.044Z,17.25
2018-10-05T10:51:34.055Z,17.19
2018-10-05T10:52:34.331Z,17.19
2018-10-05T10:53:34.017Z,17.19
2018-10-05T10:54:34.045Z,17.19
2018-10-05T10:55:34.009Z,17.25
2018-10-05T10:56:34.012Z,17.31
2018-10-05T10:57:34.064Z,17.37
2018-10-05T10:58:33.994Z,17.44
2018-10-05T10:59:34.057Z,17.44
2018-10-05T11:00:34.384Z,17.44
2018-10-05T11:01:33.988Z,17.5
2018-10-05T11:02:34.006Z,17.56
2018-10-05T11:03:34.149Z,17.56
2018-10-05T11:04:35.649Z,17.62
2018-10-05T11:05:34.079Z,17.62
2018-10-05T11:06:34.181Z,17.69
2018-10-05T11:07:34.046Z,17.62
2018-10-05T11:08:34.225Z,17.56
2018-10-05T11:09:34.194Z,17.62
2018-10-05T11:10:34.054Z,17.69
2018-10-05T11:11:33.994Z,17.69
2018-10-05T11:12:34.402Z,17.75
2018-10-05T11:13:33.991Z,17.81
2018-10-05T11:14:34.198Z,17.87
2018-10-05T11:15:34.374Z,17.87
2018-10-05T11:16:34.513Z,18
2018-10-05T11:17:34.197Z,18
2018-10-05T11:18:34.099Z,18.06
2018-10-05T11:19:34.256Z,18.06
2018-10-05T11:20:34.007Z,18.19
2018-10-05T11:21:33.982Z,18.25
2018-10-05T11:22:34.329Z,18.25
2018-10-05T11:23:34.358Z,18.19
2018-10-05T11:24:34.139Z,18.19
2018-10-05T11:25:34.118Z,18.19
2018-10-05T11:26:34.075Z,18.25
2018-10-05T11:27:34.039Z,18.25
2018-10-05T11:28:33.967Z,18.31
2018-10-05T11:29:34.587Z,18.31
2018-10-05T11:30:34.283Z,18.25
2018-10-05T11:31:33.965Z,18.31
2018-10-05T11:32:34.138Z,18.31
2018-10-05T11:33:34.114Z,18.37
2018-10-05T11:34:34.742Z,18.44
2018-10-05T11:35:34.178Z,18.44
2018-10-05T11:36:34.037Z,18.44
2018-10-05T11:37:33.954Z,18.5
2018-10-05T11:38:34.040Z,18.44
2018-10-05T11:39:34.165Z,18.44
2018-10-05T11:40:34.331Z,18.44
2018-10-05T11:41:34.250Z,18.44
2018-10-05T11:42:33.951Z,18.44
2018-10-05T11:43:34.069Z,18.44
2018-10-05T11:44:33.940Z,18.5
2018-10-05T11:45:34.006Z,18.5
2018-10-05T11:46:34.027Z,18.5
2018-10-05T11:47:34.195Z,18.56
2018-10-05T11:48:33.952Z,18.5
2018-10-05T11:49:33.943Z,18.56
2018-10-05T11:50:34.266Z,18.5
2018-10-05T11:51:34.036Z,18.56
2018-10-05T11:52:35.199Z,18.56
2018-10-05T11:53:34.293Z,18.56
2018-10-05T11:54:34.104Z,18.62
2018-10-05T11:55:33.982Z,18.56
2018-10-05T11:56:34.039Z,18.69
2018-10-05T11:57:34.343Z,18.69
2018-10-05T11:58:33.910Z,18.69
2018-10-05T11:59:34.655Z,18.81
2018-10-05T12:00:33.982Z,18.75
2018-10-05T12:01:34.121Z,18.75
2018-10-05T12:02:34.648Z,18.75
2018-10-05T12:03:34.204Z,18.75
2018-10-05T12:04:34.214Z,18.81
2018-10-05T12:05:34.294Z,18.75
2018-10-05T12:06:34.489Z,18.75
2018-10-05T12:07:33.933Z,18.81
2018-10-05T12:08:33.911Z,18.81
2018-10-05T12:09:33.958Z,18.87
2018-10-05T12:10:33.935Z,18.87
2018-10-05T12:11:33.901Z,18.87
2018-10-05T12:12:33.920Z,18.94
2018-10-05T12:13:34.187Z,18.94
2018-10-05T12:14:33.943Z,18.94
2018-10-05T12:15:33.900Z,19
2018-10-05T12:16:33.930Z,19
2018-10-05T12:17:33.918Z,19.06
2018-10-05T12:18:33.930Z,19.06
2018-10-05T12:19:34.224Z,19.12
2018-10-05T12:20:33.891Z,19.12
2018-10-05T12:21:33.888Z,19.12
2018-10-05T12:22:33.906Z,19.12
2018-10-05T12:23:33.936Z,19.06
2018-10-05T12:24:33.900Z,19.12
2018-10-05T12:25:33.900Z,19.12
2018-10-05T12:26:34.310Z,19.12
2018-10-05T12:27:33.908Z,19.19
2018-10-05T12:28:33.876Z,19.12
2018-10-05T12:29:33.907Z,19.19
2018-10-05T12:30:34.298Z,19.19
2018-10-05T12:31:34.089Z,19.19
2018-10-05T12:32:34.051Z,19.25
2018-10-05T12:33:33.926Z,19.25
2018-10-05T12:34:34.144Z,19.25
2018-10-05T12:35:34.076Z,19.25
2018-10-05T12:36:34.059Z,19.31
2018-10-05T12:37:34.110Z,19.25
2018-10-05T12:38:34.230Z,19.25
2018-10-05T12:39:33.898Z,19.37
2018-10-05T12:40:34.063Z,19.31
2018-10-05T12:41:33.893Z,19.31
2018-10-05T12:42:33.866Z,19.31
2018-10-05T12:43:34.243Z,19.31
2018-10-05T12:44:33.898Z,19.37
2018-10-05T12:45:34.282Z,19.37
2018-10-05T12:46:33.888Z,19.37
2018-10-05T12:47:33.861Z,19.37
2018-10-05T12:48:33.930Z,19.37
2018-10-05T12:49:34.111Z,19.44
2018-10-05T12:50:33.887Z,19.44
2018-10-05T12:51:33.917Z,19.37
2018-10-05T12:52:33.927Z,19.44
2018-10-05T12:53:33.997Z,19.44
2018-10-05T12:54:34.129Z,19.44
2018-10-05T12:55:33.885Z,19.5
2018-10-05T12:56:33.964Z,19.44
2018-10-05T12:57:33.886Z,19.44
2018-10-05T12:58:33.846Z,19.44
2018-10-05T12:59:34.347Z,19.44
2018-10-05T13:00:34.022Z,19.5
2018-10-05T13:01:33.884Z,19.44
2018-10-05T13:02:33.847Z,19.5
2018-10-05T13:03:34.241Z,19.5
2018-10-05T13:04:34.129Z,19.56
2018-10-05T13:05:33.876Z,19.56